createdAt,value
2018-11-28T00:01:56.489Z,5.50
2018-11-28T00:04:24.018Z,5.50
2018-11-28T00:06:52.070Z,5.50
2018-11-28T00:09:19.568Z,5.50
2018-11-28T00:11:47.150Z,5.60
2018-11-28T00:14:14.608Z,5.50
2018-11-28T00:16:42.141Z,5.50
2018-11-28T00:19:09.664Z,5.50
2018-11-28T00:21:37.168Z,5.50
2018-11-28T00:24:05.235Z,5.40
2018-11-28T00:26:32.759Z,5.40
2018-11-28T00:29:00.886Z,5.40
2018-11-28T00:31:28.557Z,5.40
2018-11-28T00:33:56.114Z,5.30
2018-11-28T00:36:24.087Z,5.40
2018-11-28T00:38:51.615Z,5.40
2018-11-28T00:41:19.122Z,5.40
2018-11-28T00:43:46.659Z,5.50
2018-11-28T00:46:14.150Z,5.40
2018-11-28T00:48:42.260Z,5.40
2018-11-28T00:51:09.734Z,5.20
2018-11-28T00:53:37.210Z,5.40
2018-11-28T00:56:04.868Z,5.40
2018-11-28T01:00:59.915Z,5.40
2018-11-28T01:03:27.457Z,5.30
2018-11-28T01:05:55.019Z,5.30
2018-11-28T01:08:22.516Z,5.20
2018-11-28T01:10:50.099Z,5.20
2018-11-28T01:13:17.714Z,5.10
2018-11-28T01:15:45.187Z,5.10
2018-11-28T01:18:12.682Z,5.20
2018-11-28T01:20:40.195Z,5.20
2018-11-28T01:23:07.852Z,5.20
2018-11-28T01:28:03.723Z,5.30
2018-11-28T01:30:31.257Z,5.30
2018-11-28T01:32:58.855Z,5.30
2018-11-28T01:35:26.387Z,5.20
2018-11-28T01:37:53.886Z,5.10
2018-11-28T01:40:22.787Z,5.20
2018-11-28T01:42:50.934Z,5.20
2018-11-28T01:45:20.665Z,5.30
2018-11-28T01:47:48.353Z,5.30
2018-11-28T01:50:16.824Z,5.30
2018-11-28T01:52:44.480Z,5.20
2018-11-28T01:55:13.962Z,5.30
2018-11-28T01:57:41.716Z,5.20
2018-11-28T02:00:17.510Z,5.20
2018-11-28T02:02:45.548Z,5.20
2018-11-28T02:05:13.112Z,5.20
2018-11-28T02:20:45.114Z,5.20
2018-11-28T02:23:12.755Z,5.20
2018-11-28T02:25:40.367Z,5.20
2018-11-28T02:28:08.899Z,5.20
2018-11-28T02:30:36.408Z,5.20
2018-11-28T02:33:04.160Z,5.20
2018-11-28T02:35:32.191Z,5.20
2018-11-28T02:37:59.802Z,5.20
2018-11-28T02:40:27.323Z,5.10
2018-11-28T02:42:54.889Z,5.20
2018-11-28T02:45:22.737Z,5.20
2018-11-28T02:47:51.045Z,5.20
2018-11-28T02:50:19.100Z,5.20
2018-11-28T02:52:46.601Z,5.20
2018-11-28T02:55:16.330Z,5.20
2018-11-28T02:57:45.665Z,5.20
2018-11-28T03:00:19.337Z,5.20
2018-11-28T03:02:48.362Z,5.40
2018-11-28T03:05:16.501Z,5.40
2018-11-28T03:07:44.245Z,5.40
2018-11-28T03:10:18.078Z,5.40
2018-11-28T03:12:47.555Z,5.40
2018-11-28T03:15:31.615Z,5.40
2018-11-28T03:18:00.262Z,5.50
2018-11-28T03:20:30.240Z,5.30
2018-11-28T03:22:57.887Z,5.30
2018-11-28T03:25:25.363Z,5.30
2018-11-28T03:27:52.840Z,5.30
2018-11-28T03:30:20.410Z,5.30
2018-11-28T03:32:47.952Z,5.30
2018-11-28T03:35:15.803Z,5.40
2018-11-28T03:37:43.721Z,5.40
2018-11-28T03:40:12.300Z,5.40
2018-11-28T03:42:40.235Z,5.30
2018-11-28T03:45:10.976Z,5.30
2018-11-28T03:47:39.455Z,5.30
2018-11-28T03:50:08.497Z,5.50
2018-11-28T03:52:37.186Z,5.40
2018-11-28T03:55:06.403Z,5.40
2018-11-28T03:57:33.987Z,5.40
2018-11-28T04:00:01.685Z,5.50
2018-11-28T04:02:29.371Z,5.50
2018-11-28T04:07:24.252Z,5.20
2018-11-28T04:09:51.893Z,5.20
2018-11-28T04:12:19.439Z,5.20
2018-11-28T04:14:46.954Z,5.20
2018-11-28T04:17:14.459Z,5.30
2018-11-28T04:19:42.933Z,5.20
2018-11-28T04:22:10.468Z,5.20
2018-11-28T04:24:38.070Z,5.20
2018-11-28T04:27:06.080Z,5.30
2018-11-28T04:29:33.601Z,5.30
2018-11-28T04:32:01.113Z,5.30
2018-11-28T04:34:28.737Z,5.30
2018-11-28T04:36:56.284Z,5.20
2018-11-28T04:39:23.738Z,5.20
2018-11-28T04:44:18.604Z,5.20
2018-11-28T04:46:46.107Z,5.40
2018-11-28T04:49:13.701Z,5.30
2018-11-28T04:51:41.249Z,5.40
2018-11-28T04:54:08.945Z,5.40
2018-11-28T04:56:37.075Z,5.50
2018-11-28T04:59:05.190Z,5.20
2018-11-28T05:07:43.866Z,8.80
2018-11-28T05:10:17.810Z,5.30
2018-11-28T05:12:45.443Z,5.10
2018-11-28T05:15:15.778Z,5.10
2018-11-28T05:17:44.802Z,5.10
2018-11-28T05:20:13.832Z,5.10
2018-11-28T05:22:42.067Z,5.10
2018-11-28T05:25:15.255Z,5.20
2018-11-28T05:27:46.293Z,5.20
2018-11-28T05:30:15.085Z,5.20
2018-11-28T05:32:42.813Z,5.20
2018-11-28T05:35:12.501Z,5.30
2018-11-28T05:37:40.216Z,5.40
2018-11-28T05:40:10.909Z,5.30
2018-11-28T05:45:08.283Z,5.30
2018-11-28T05:47:36.460Z,5.20
2018-11-28T05:50:06.618Z,5.10
2018-11-28T05:52:34.203Z,5.10
2018-11-28T05:55:01.676Z,5.10
2018-11-28T05:57:29.247Z,5.10
2018-11-28T05:59:56.727Z,5.20
2018-11-28T06:02:24.288Z,5.20
2018-11-28T06:04:51.934Z,5.20
2018-11-28T06:07:19.491Z,5.20
2018-11-28T06:09:47.009Z,5.20
2018-11-28T06:12:14.673Z,5.10
2018-11-28T06:14:42.266Z,5.20
2018-11-28T06:17:09.994Z,5.00
2018-11-28T06:19:37.549Z,5.00
2018-11-28T06:22:05.466Z,5.20
2018-11-28T06:24:32.932Z,5.20
2018-11-28T06:27:00.400Z,5.00
2018-11-28T06:29:28.392Z,5.10
2018-11-28T06:31:55.941Z,5.10
2018-11-28T06:34:23.459Z,5.10
2018-11-28T06:36:50.922Z,5.10
2018-11-28T06:39:18.470Z,5.10
2018-11-28T06:41:45.965Z,5.10
2018-11-28T06:44:13.618Z,5.10
2018-11-28T06:46:41.134Z,5.10
2018-11-28T06:49:08.762Z,5.00
2018-11-28T06:51:36.265Z,5.20
2018-11-28T06:54:04.014Z,5.00
2018-11-28T06:56:31.508Z,5.00
2018-11-28T06:58:59.015Z,5.00
2018-11-28T07:01:26.523Z,5.00
2018-11-28T07:03:54.151Z,4.80
2018-11-28T07:06:21.663Z,4.80
2018-11-28T07:08:49.255Z,4.80
2018-11-28T07:11:16.892Z,4.70
2018-11-28T07:16:12.045Z,4.90
2018-11-28T07:19:16.529Z,4.90
2018-11-28T07:29:07.138Z,5.10
2018-11-28T07:31:34.738Z,5.10
2018-11-28T07:36:30.409Z,5.00
2018-11-28T07:41:26.511Z,5.00
2018-11-28T07:46:21.598Z,5.10
2018-11-28T07:48:49.110Z,5.10
2018-11-28T07:51:17.257Z,5.20
2018-11-28T07:53:44.770Z,5.10
2018-11-28T07:56:12.510Z,5.10
2018-11-28T07:58:40.022Z,5.10
2018-11-28T08:01:07.651Z,5.20
2018-11-28T08:03:35.387Z,5.20
2018-11-28T08:06:02.956Z,5.10
2018-11-28T08:08:35.071Z,5.00
2018-11-28T08:13:30.137Z,5.20
2018-11-28T08:15:57.758Z,5.20
2018-11-28T08:20:52.668Z,5.20
2018-11-28T08:23:20.138Z,5.10
2018-11-28T08:25:47.631Z,5.20
2018-11-28T08:28:15.139Z,5.30
2018-11-28T08:30:42.606Z,5.30
2018-11-28T08:33:11.381Z,5.30
2018-11-28T08:35:38.933Z,5.30
2018-11-28T08:38:06.493Z,5.30
2018-11-28T08:40:34.017Z,5.10
2018-11-28T08:43:01.650Z,5.20
2018-11-28T08:45:29.342Z,5.30
2018-11-28T08:47:58.119Z,5.40
2018-11-28T08:50:30.252Z,5.50
2018-11-28T08:52:57.904Z,5.70
2018-11-28T08:55:25.560Z,5.40
2018-11-28T09:00:21.774Z,5.40
2018-11-28T09:02:51.386Z,5.40
2018-11-28T09:05:19.666Z,5.50
2018-11-28T09:10:15.755Z,5.50
2018-11-28T09:12:44.014Z,5.60
2018-11-28T09:15:16.947Z,5.70
2018-11-28T09:17:44.600Z,5.60
2018-11-28T09:20:13.807Z,5.70
2018-11-28T09:22:41.456Z,5.50
2018-11-28T09:25:11.306Z,5.40
2018-11-28T09:29:03.431Z,5.60
2018-11-28T09:31:30.982Z,5.60
2018-11-28T09:33:58.611Z,5.70
2018-11-28T09:36:26.123Z,5.80
2018-11-28T09:38:53.702Z,5.90
2018-11-28T09:41:21.281Z,5.90
2018-11-28T09:43:48.984Z,6.00
2018-11-28T09:46:16.538Z,6.00
2018-11-28T09:48:44.186Z,6.00
2018-11-28T09:53:39.450Z,6.10
2018-11-28T09:56:07.105Z,6.20
2018-11-28T09:58:34.650Z,6.20
2018-11-28T10:05:57.208Z,6.40
2018-11-28T10:08:24.750Z,6.30
2018-11-28T10:10:52.238Z,6.30
2018-11-28T10:13:19.799Z,6.20
2018-11-28T10:15:47.334Z,6.30
2018-11-28T10:18:14.875Z,6.20
2018-11-28T10:20:43.597Z,6.30
2018-11-28T10:23:11.282Z,6.40
2018-11-28T10:30:35.610Z,6.80
2018-11-28T10:33:04.686Z,6.70
2018-11-28T10:35:32.744Z,6.70
2018-11-28T10:40:27.762Z,7.00
2018-11-28T10:42:56.570Z,7.40
2018-11-28T10:45:25.130Z,7.40
2018-11-28T10:47:52.923Z,7.50
2018-11-28T10:50:20.488Z,7.40
2018-11-28T11:05:58.423Z,7.20
2018-11-28T11:08:27.123Z,8.80
2018-11-28T11:11:00.670Z,8.90
2018-11-28T11:13:34.514Z,9.10
2018-11-28T11:16:02.192Z,9.20
2018-11-28T11:18:29.893Z,9.40
2018-11-28T11:20:57.446Z,9.80
2018-11-28T11:23:25.031Z,10.00
2018-11-28T11:25:53.547Z,10.90
2018-11-28T11:33:16.297Z,10.40
2018-11-28T11:35:43.872Z,10.00
2018-11-28T11:38:11.606Z,9.80
2018-11-28T11:40:39.311Z,9.80
2018-11-28T11:43:07.250Z,9.40
2018-11-28T11:45:35.053Z,9.20
2018-11-28T11:48:03.185Z,8.50
2018-11-28T11:50:30.706Z,8.40
2018-11-28T11:52:58.377Z,8.00
2018-11-28T11:55:26.014Z,7.80
2018-11-28T11:57:53.637Z,7.60
2018-11-28T12:00:25.319Z,7.50
2018-11-28T12:03:10.667Z,7.50
2018-11-28T12:05:39.882Z,7.30
2018-11-28T12:08:07.613Z,7.20
2018-11-28T12:10:35.176Z,7.20
2018-11-28T12:13:02.746Z,7.30
2018-11-28T12:15:30.257Z,7.30
2018-11-28T12:17:57.770Z,7.40
2018-11-28T12:20:33.721Z,7.40
2018-11-28T12:25:28.823Z,7.50
2018-11-28T12:27:56.351Z,7.60
2018-11-28T12:30:24.042Z,7.50
2018-11-28T12:32:51.605Z,7.50
2018-11-28T12:37:46.830Z,7.50
2018-11-28T12:40:15.847Z,7.70
2018-11-28T12:42:47.129Z,7.60
2018-11-28T12:45:15.606Z,5.40
2018-11-28T12:52:41.259Z,7.70
2018-11-28T12:55:09.126Z,7.60
2018-11-28T12:57:36.631Z,7.40
2018-11-28T13:05:01.431Z,7.30
2018-11-28T13:09:56.416Z,7.10
2018-11-28T13:12:23.957Z,7.10
2018-11-28T13:14:51.609Z,7.00
2018-11-28T13:17:19.222Z,6.90
2018-11-28T13:19:48.064Z,6.90
2018-11-28T13:22:15.593Z,7.00
2018-11-28T13:24:43.232Z,6.90
2018-11-28T13:27:10.743Z,7.00
2018-11-28T13:29:38.299Z,7.00
2018-11-28T13:32:05.915Z,7.00
2018-11-28T13:34:33.440Z,7.00
2018-11-28T13:37:01.016Z,7.00
2018-11-28T13:39:28.573Z,7.00
2018-11-28T13:41:56.751Z,7.00
2018-11-28T13:44:24.375Z,7.10
2018-11-28T13:46:51.882Z,7.10
2018-11-28T13:49:19.542Z,7.00
2018-11-28T13:54:21.276Z,7.10
2018-11-28T13:57:00.653Z,7.10
2018-11-28T13:59:10.572Z,7.00
2018-11-28T14:01:38.082Z,7.10
2018-11-28T14:04:05.701Z,7.00
2018-11-28T14:06:33.247Z,6.90
2018-11-28T14:09:00.812Z,6.90
2018-11-28T14:11:28.383Z,6.90
2018-11-28T14:13:55.998Z,7.00
2018-11-28T14:16:23.551Z,7.00
2018-11-28T14:18:51.076Z,7.00
2018-11-28T14:21:18.554Z,7.10
2018-11-28T14:23:46.119Z,7.00
2018-11-28T14:26:13.647Z,6.90
2018-11-28T14:28:41.182Z,6.70
2018-11-28T14:31:08.867Z,6.80
2018-11-28T14:33:36.410Z,7.10
2018-11-28T14:36:04.665Z,6.90
2018-11-28T14:38:32.139Z,6.90
2018-11-28T14:40:59.728Z,6.90
2018-11-28T14:43:28.069Z,7.00
2018-11-28T14:45:55.713Z,6.90
2018-11-28T14:48:23.326Z,6.90
2018-11-28T14:50:51.078Z,6.80
2018-11-28T14:53:18.575Z,7.00
2018-11-28T14:55:46.222Z,6.80
2018-11-28T14:58:13.811Z,6.70
2018-11-28T15:03:12.191Z,6.70
2018-11-28T15:05:56.509Z,6.80
2018-11-28T15:08:24.703Z,6.80
2018-11-28T15:11:01.754Z,6.90
2018-11-28T15:13:29.955Z,6.90
2018-11-28T15:15:57.512Z,6.90
2018-11-28T15:18:25.195Z,6.90
2018-11-28T15:20:52.752Z,6.90
2018-11-28T15:23:20.734Z,6.80
2018-11-28T15:25:51.274Z,6.70
2018-11-28T15:28:18.836Z,6.70
2018-11-28T15:30:46.444Z,6.80
2018-11-28T15:33:16.307Z,6.80
2018-11-28T15:35:43.952Z,6.80
2018-11-28T15:38:11.610Z,6.80
2018-11-28T15:40:39.172Z,6.70
2018-11-28T15:43:06.883Z,6.80
2018-11-28T15:45:34.853Z,6.80
2018-11-28T15:48:02.766Z,6.80
2018-11-28T15:52:59.246Z,6.70
2018-11-28T15:55:26.794Z,6.60
2018-11-28T15:57:54.550Z,6.60
2018-11-28T16:00:25.706Z,6.50
2018-11-28T16:02:53.798Z,6.70
2018-11-28T16:05:21.555Z,6.90
2018-11-28T16:10:22.310Z,6.70
2018-11-28T16:15:46.788Z,6.80
2018-11-28T16:18:14.501Z,6.70
2018-11-28T16:25:38.098Z,6.80
2018-11-28T16:28:06.689Z,6.70
2018-11-28T16:30:34.231Z,6.70
2018-11-28T16:33:01.719Z,6.80
2018-11-28T16:35:29.298Z,6.80
2018-11-28T16:37:56.884Z,6.70
2018-11-28T16:40:25.168Z,6.80
2018-11-28T16:42:52.737Z,6.80
2018-11-28T16:45:20.894Z,6.70
2018-11-28T16:50:16.842Z,6.70
2018-11-28T16:52:45.213Z,6.70
2018-11-28T16:55:15.008Z,6.70
2018-11-28T16:57:46.170Z,6.70
2018-11-28T17:02:43.111Z,6.70
2018-11-28T17:05:17.147Z,6.80
2018-11-28T17:07:44.858Z,6.90
2018-11-28T17:10:19.100Z,6.90
2018-11-28T17:12:47.873Z,6.80
2018-11-28T17:15:16.896Z,6.80
2018-11-28T17:30:49.068Z,6.80
2018-11-28T17:33:16.759Z,6.70
2018-11-28T17:35:44.366Z,6.70
2018-11-28T17:38:11.849Z,6.70
2018-11-28T17:40:39.613Z,6.70
2018-11-28T17:43:07.290Z,6.70
2018-11-28T17:45:35.046Z,6.70
2018-11-28T17:48:02.595Z,6.70
2018-11-28T17:50:30.162Z,6.80
2018-11-28T17:53:07.371Z,6.80
2018-11-28T17:55:44.661Z,6.80
2018-11-28T17:58:12.329Z,6.80
2018-11-28T18:00:39.973Z,6.80
2018-11-28T18:03:07.548Z,6.70
2018-11-28T18:05:35.134Z,6.70
2018-11-28T18:08:02.869Z,6.80
2018-11-28T18:10:30.518Z,6.80
2018-11-28T18:13:08.815Z,6.70
2018-11-28T18:15:37.391Z,6.70
2018-11-28T18:23:02.074Z,6.80
2018-11-28T18:35:23.136Z,6.80
2018-11-28T18:37:51.175Z,6.80
2018-11-28T18:40:18.805Z,6.70
2018-11-28T18:42:46.417Z,6.80
2018-11-28T18:47:42.232Z,6.80
2018-11-28T18:50:10.867Z,6.70
2018-11-28T18:55:08.944Z,6.70
2018-11-28T18:57:36.793Z,6.70
2018-11-28T19:00:08.788Z,6.70
2018-11-28T19:05:05.752Z,6.60
2018-11-28T19:07:34.498Z,6.60
2018-11-28T19:10:01.966Z,6.70
2018-11-28T19:12:31.028Z,6.70
2018-11-28T19:14:59.332Z,6.60
2018-11-28T19:17:27.734Z,6.60
2018-11-28T19:19:55.329Z,6.60
2018-11-28T19:22:23.464Z,6.60
2018-11-28T19:24:51.815Z,6.60
2018-11-28T19:27:19.450Z,6.60
2018-11-28T19:29:47.602Z,6.60
2018-11-28T19:32:15.275Z,6.60
2018-11-28T19:37:10.648Z,6.60
2018-11-28T19:39:38.258Z,6.60
2018-11-28T19:42:05.866Z,6.60
2018-11-28T19:44:33.399Z,6.60
2018-11-28T19:47:01.112Z,6.50
2018-11-28T19:49:28.713Z,6.50
2018-11-28T19:51:56.323Z,6.60
2018-11-28T19:54:24.330Z,6.60
2018-11-28T19:56:52.936Z,6.50
2018-11-28T19:59:20.528Z,6.50
2018-11-28T20:01:48.219Z,6.40
2018-11-28T20:04:15.949Z,6.40
2018-11-28T20:06:44.792Z,6.40
2018-11-28T20:09:18.671Z,6.40
2018-11-28T20:11:46.340Z,6.50
2018-11-28T20:15:40.439Z,6.40
2018-11-28T20:18:08.221Z,6.50
2018-11-28T20:20:35.903Z,6.50
2018-11-28T20:25:31.115Z,6.30
2018-11-28T20:28:00.389Z,6.30
2018-11-28T20:30:30.630Z,6.20
2018-11-28T20:32:58.487Z,6.30
2018-11-28T20:35:26.739Z,6.30
2018-11-28T20:37:54.325Z,6.30
2018-11-28T20:53:26.953Z,6.40
2018-11-28T20:55:55.028Z,6.40
2018-11-28T20:58:22.610Z,6.30
2018-11-28T21:00:50.488Z,6.40
2018-11-28T21:03:18.140Z,6.40
2018-11-28T21:05:45.878Z,6.40
2018-11-28T21:08:13.514Z,6.40
2018-11-28T21:10:41.391Z,6.40
2018-11-28T21:13:11.350Z,6.30
2018-11-28T21:15:39.498Z,6.30
2018-11-28T21:18:08.087Z,6.30
2018-11-28T21:20:36.375Z,6.30
2018-11-28T21:23:11.510Z,6.40
2018-11-28T21:28:07.396Z,6.40
2018-11-28T21:30:35.612Z,6.40
2018-11-28T21:33:03.518Z,6.40
2018-11-28T21:35:35.489Z,6.40
2018-11-28T21:40:31.404Z,6.30
2018-11-28T21:42:58.995Z,6.20
2018-11-28T21:47:54.853Z,6.20
2018-11-28T21:50:22.468Z,6.20
2018-11-28T21:52:51.114Z,6.20
2018-11-28T21:57:47.979Z,6.20
2018-11-28T22:00:17.416Z,6.20
2018-11-28T22:02:45.045Z,6.20
2018-11-28T22:05:13.551Z,6.20
2018-11-28T22:10:17.457Z,6.20
2018-11-28T22:12:46.979Z,6.10
2018-11-28T22:15:17.295Z,6.20
2018-11-28T22:17:50.402Z,6.10
2018-11-28T22:20:18.879Z,6.20
2018-11-28T22:22:46.898Z,6.20
2018-11-28T22:25:17.572Z,6.20
2018-11-28T22:27:46.225Z,6.20
2018-11-28T22:30:16.009Z,6.20
2018-11-28T22:32:45.287Z,6.20
2018-11-28T22:35:13.711Z,6.20
2018-11-28T22:37:41.253Z,6.10
2018-11-28T22:40:12.091Z,6.20
2018-11-28T22:42:39.887Z,6.10
2018-11-28T22:45:14.775Z,6.20
2018-11-28T22:47:42.290Z,6.20
2018-11-28T22:50:10.960Z,6.20
2018-11-28T22:52:39.242Z,6.30
2018-11-28T22:55:11.426Z,6.30
2018-11-28T23:00:16.610Z,6.20
2018-11-28T23:02:56.560Z,6.20
2018-11-28T23:05:30.656Z,6.30
2018-11-28T23:07:59.326Z,6.20
2018-11-28T23:12:54.625Z,6.30
2018-11-28T23:17:55.017Z,6.10
2018-11-28T23:22:45.971Z,6.10
2018-11-28T23:35:10.121Z,6.30
2018-11-28T23:40:11.799Z,6.20
2018-11-28T23:45:08.794Z,6.20
2018-11-28T23:47:36.387Z,6.20
2018-11-28T23:50:08.574Z,6.10
2018-11-28T23:52:36.314Z,6.20
2018-11-28T23:55:05.272Z,6.20
2018-11-28T23:57:32.907Z,6.20
